Time;durP1;ratioP1;P1;durP2;ratioP2;P2;SDS_P1;SDS_P2;PMS_P1;PMS_P2;Temp;Humidity;BMP_temperature;BMP_pressure;BME280_temperature;BME280_humidity;BME280_pressure;Samples;Min_cycle;Max_cycle;Signal;HPM_P1;HPM_P2
2023/12/28 00:00:48;;;;;;;14.23;6.80;;;;;;;1.62;100.00;100490.00;4983814;28;20228;-72
2023/12/28 00:03:14;;;;;;;14.83;7.07;;;;;;;1.47;100.00;100480.53;4984027;28;20217;-71
2023/12/28 00:05:41;;;;;;;16.93;6.97;;;;;;;1.51;100.00;100492.94;4993590;28;20694;-72
2023/12/28 00:08:07;;;;;;;13.33;6.43;;;;;;;1.48;100.00;100479.72;5038939;22;20606;-73
2023/12/28 00:10:33;;;;;;;12.13;6.77;;;;;;;1.39;100.00;100487.09;4989825;28;20197;-73
2023/12/28 00:13:00;;;;;;;14.63;6.80;;;;;;;1.35;100.00;100494.69;4991010;28;20206;-73
2023/12/28 00:15:26;;;;;;;13.03;6.83;;;;;;;1.50;100.00;100485.03;4987598;28;20210;-73
2023/12/28 00:17:53;;;;;;;14.33;6.67;;;;;;;1.48;100.00;100482.34;4989240;28;20752;-73
2023/12/28 00:20:19;;;;;;;14.93;5.93;;;;;;;1.52;100.00;100486.00;4989064;28;20232;-73
2023/12/28 00:22:45;;;;;;;13.27;6.37;;;;;;;1.60;100.00;100487.28;4984295;28;20208;-73
2023/12/28 00:25:15;;;;;;;17.37;7.47;;;;;;;1.69;100.00;100482.53;4985855;28;20652;-73
2023/12/28 00:27:41;;;;;;;13.07;6.87;;;;;;;1.78;100.00;100477.78;4979679;28;20311;-73
2023/12/28 00:30:09;;;;;;;14.87;7.33;;;;;;;1.97;100.00;100479.56;4991648;28;20258;-72
2023/12/28 00:32:36;;;;;;;17.63;6.63;;;;;;;2.10;100.00;100496.75;4984465;28;20197;-73
2023/12/28 00:35:04;;;;;;;15.07;7.03;;;;;;;2.19;100.00;100490.25;4986045;28;20603;-72
2023/12/28 00:37:30;;;;;;;15.60;6.67;;;;;;;2.30;100.00;100488.13;4988180;28;20704;-73
2023/12/28 00:39:59;;;;;;;14.63;7.13;;;;;;;2.31;100.00;100489.03;4990798;28;20224;-73
2023/12/28 00:42:25;;;;;;;14.97;7.13;;;;;;;2.34;100.00;100490.06;4987482;28;20225;-73
2023/12/28 00:44:52;;;;;;;16.13;7.30;;;;;;;2.30;100.00;100472.44;4987664;28;20259;-73
2023/12/28 00:47:19;;;;;;;13.87;7.10;;;;;;;2.30;100.00;100467.22;4983616;28;20201;-73
2023/12/28 00:49:45;;;;;;;14.80;7.87;;;;;;;2.37;100.00;100476.25;4989568;28;20475;-73
2023/12/28 00:52:12;;;;;;;13.00;6.63;;;;;;;2.38;100.00;100475.41;4988531;28;20231;-73
2023/12/28 00:54:38;;;;;;;16.00;6.60;;;;;;;2.51;100.00;100477.81;4986575;28;20204;-73
2023/12/28 00:57:05;;;;;;;13.60;6.80;;;;;;;2.60;100.00;100469.50;4986919;28;20218;-73
2023/12/28 00:59:31;;;;;;;17.03;7.03;;;;;;;2.68;100.00;100466.41;4985104;28;20214;-73
2023/12/28 01:01:58;;;;;;;11.47;7.23;;;;;;;2.89;100.00;100453.41;4989419;28;20250;-73
2023/12/28 01:04:24;;;;;;;15.87;7.47;;;;;;;2.94;100.00;100445.78;4987550;28;20201;-73
2023/12/28 01:06:54;;;;;;;17.23;8.17;;;;;;;2.99;100.00;100468.69;4989078;28;20205;-73
2023/12/28 01:09:20;;;;;;;16.50;8.03;;;;;;;3.10;100.00;100482.25;4989725;28;20229;-73
2023/12/28 01:11:47;;;;;;;14.03;6.80;;;;;;;3.17;100.00;100486.91;4986177;28;20205;-73
2023/12/28 01:14:13;;;;;;;16.20;7.47;;;;;;;3.25;100.00;100489.91;5001788;28;20236;-73
2023/12/28 01:16:40;;;;;;;15.00;7.10;;;;;;;3.27;100.00;100509.19;4986877;28;20593;-72
2023/12/28 01:19:06;;;;;;;13.30;7.60;;;;;;;3.24;100.00;100507.31;4985354;28;20266;-73
2023/12/28 01:21:33;;;;;;;13.33;7.10;;;;;;;3.25;100.00;100513.44;4988124;28;20229;-72
2023/12/28 01:23:59;;;;;;;11.50;6.73;;;;;;;3.29;100.00;100515.38;4986181;28;20203;-74
2023/12/28 01:26:25;;;;;;;15.77;7.20;;;;;;;3.42;100.00;100520.31;4979848;28;20226;-73
2023/12/28 01:28:52;;;;;;;16.50;8.03;;;;;;;3.44;100.00;100514.31;4986744;28;20220;-73
2023/12/28 01:31:18;;;;;;;13.67;6.50;;;;;;;3.48;100.00;100494.38;4989616;28;20211;-73
2023/12/28 01:33:45;;;;;;;13.00;7.33;;;;;;;3.55;100.00;100506.03;4985588;28;20689;-73
2023/12/28 01:36:19;;;;;;;14.60;7.60;;;;;;;3.69;100.00;100515.38;4985015;28;20696;-72
2023/12/28 01:38:46;;;;;;;14.17;7.40;;;;;;;3.61;100.00;100530.78;4989336;28;20225;-73
2023/12/28 01:41:13;;;;;;;13.43;6.53;;;;;;;3.61;100.00;100525.53;4987043;28;20225;-73
2023/12/28 01:43:39;;;;;;;16.23;7.37;;;;;;;3.71;100.00;100535.56;4984160;28;20288;-73
2023/12/28 01:46:08;;;;;;;14.63;6.60;;;;;;;3.73;100.00;100551.34;4986459;28;20211;-73
2023/12/28 01:48:35;;;;;;;17.33;7.67;;;;;;;3.67;100.00;100541.50;4986984;28;20653;-73
2023/12/28 01:51:02;;;;;;;12.47;6.40;;;;;;;3.70;100.00;100539.00;4985192;28;20236;-73
2023/12/28 01:53:29;;;;;;;17.90;7.67;;;;;;;3.70;100.00;100533.78;4989455;28;20204;-74
2023/12/28 01:55:56;;;;;;;14.30;7.33;;;;;;;3.67;100.00;100553.69;4988996;28;20209;-73
2023/12/28 01:58:23;;;;;;;14.53;6.83;;;;;;;3.68;100.00;100538.06;4989244;28;20223;-73
2023/12/28 02:00:50;;;;;;;11.77;6.83;;;;;;;3.71;100.00;100542.53;4986612;28;20209;-73
2023/12/28 02:03:16;;;;;;;12.77;6.93;;;;;;;3.72;100.00;100552.19;4987785;28;20264;-73
2023/12/28 02:05:43;;;;;;;14.13;6.90;;;;;;;3.74;100.00;100556.66;4983432;28;20197;-73
2023/12/28 02:08:10;;;;;;;11.97;6.47;;;;;;;3.81;100.00;100549.06;4984807;28;20256;-73
2023/12/28 02:10:36;;;;;;;13.80;6.53;;;;;;;3.86;100.00;100560.63;4999097;28;20714;-73
2023/12/28 02:13:03;;;;;;;11.07;7.07;;;;;;;3.90;100.00;100567.78;4988178;28;20679;-73
2023/12/28 02:15:29;;;;;;;14.53;6.80;;;;;;;3.94;100.00;100567.06;4983946;28;20301;-74
2023/12/28 02:18:02;;;;;;;15.63;7.03;;;;;;;3.99;100.00;100552.44;4989180;28;20729;-74
2023/12/28 02:20:30;;;;;;;11.57;6.33;;;;;;;4.05;100.00;100552.72;4984406;28;20292;-73
2023/12/28 02:22:56;;;;;;;15.10;6.93;;;;;;;4.09;100.00;100558.16;4982657;28;20259;-73
2023/12/28 02:25:23;;;;;;;14.20;7.23;;;;;;;4.18;100.00;100556.75;4982742;28;20283;-73
2023/12/28 02:27:49;;;;;;;15.03;7.07;;;;;;;4.31;100.00;100570.41;4985476;28;20740;-73
2023/12/28 02:30:18;;;;;;;13.60;6.77;;;;;;;4.49;100.00;100569.38;4988087;28;20623;-74
2023/12/28 02:32:58;;;;;;;12.03;6.67;;;;;;;4.49;100.00;100569.38;4985898;28;20244;-73
2023/12/28 02:35:34;;;;;;;14.53;6.00;;;;;;;4.47;100.00;100573.66;4988183;28;20234;-73
2023/12/28 02:38:09;;;;;;;11.40;6.23;;;;;;;4.49;100.00;100577.25;4982739;28;20697;-74
2023/12/28 02:40:41;;;;;;;13.47;6.77;;;;;;;4.49;100.00;100570.28;4984441;28;20734;-73
2023/12/28 02:43:09;;;;;;;12.20;6.43;;;;;;;4.49;100.00;100559.78;4983462;28;20221;-73
2023/12/28 02:45:36;;;;;;;12.47;6.33;;;;;;;4.53;100.00;100569.56;4984802;28;20620;-74
2023/12/28 02:48:04;;;;;;;13.07;6.93;;;;;;;4.57;100.00;100570.56;4984403;28;20233;-73
2023/12/28 02:50:31;;;;;;;13.80;6.80;;;;;;;4.62;100.00;100580.41;4989297;28;20260;-73
2023/12/28 02:52:58;;;;;;;11.47;6.47;;;;;;;4.65;100.00;100559.56;5004786;28;20236;-73
2023/12/28 02:55:25;;;;;;;11.90;6.60;;;;;;;4.73;100.00;100576.47;4988413;28;20306;-73
2023/12/28 02:57:55;;;;;;;10.87;6.00;;;;;;;4.77;100.00;100569.63;4989089;28;20311;-73
2023/12/28 03:00:22;;;;;;;11.07;6.70;;;;;;;4.83;100.00;100562.03;4985519;28;20269;-73
2023/12/28 03:02:49;;;;;;;11.90;6.80;;;;;;;4.88;100.00;100554.31;4987913;28;20738;-73
2023/12/28 03:05:15;;;;;;;12.27;6.50;;;;;;;4.92;100.00;100550.97;4986816;28;20213;-73
2023/12/28 03:07:42;;;;;;;13.97;6.70;;;;;;;5.04;100.00;100548.81;4985947;28;20715;-73
2023/12/28 03:10:11;;;;;;;13.47;6.80;;;;;;;5.12;100.00;100550.00;4987373;28;20545;-73
2023/12/28 03:12:40;;;;;;;12.60;6.10;;;;;;;5.15;100.00;100547.47;4982983;28;20201;-73
2023/12/28 03:15:07;;;;;;;11.07;5.97;;;;;;;5.24;100.00;100537.34;4984801;28;20210;-73
2023/12/28 03:17:34;;;;;;;13.30;6.50;;;;;;;5.20;100.00;100547.66;4981477;28;20314;-73
2023/12/28 03:20:00;;;;;;;11.37;5.50;;;;;;;5.29;100.00;100534.88;4987125;28;20205;-74
2023/12/28 03:22:27;;;;;;;10.07;6.00;;;;;;;5.31;100.00;100531.47;4984622;28;20440;-73
2023/12/28 03:24:53;;;;;;;10.20;6.03;;;;;;;5.26;100.00;100538.28;4981982;28;20207;-73
2023/12/28 03:27:19;;;;;;;9.63;5.37;;;;;;;5.21;100.00;100524.09;4988419;28;20206;-72
2023/12/28 03:29:46;;;;;;;9.90;5.53;;;;;;;5.18;100.00;100516.09;4984971;28;20666;-73
2023/12/28 03:32:14;;;;;;;7.20;4.73;;;;;;;5.20;100.00;100531.91;4987082;28;20594;-73
2023/12/28 03:34:40;;;;;;;12.47;5.97;;;;;;;5.22;100.00;100532.88;4981404;28;20261;-73
2023/12/28 03:37:07;;;;;;;7.83;5.07;;;;;;;5.24;100.00;100532.09;4984669;28;20293;-74
2023/12/28 03:39:34;;;;;;;9.37;5.10;;;;;;;5.24;100.00;100534.72;4987725;28;20215;-73
2023/12/28 03:42:00;;;;;;;10.17;5.40;;;;;;;5.48;100.00;100549.56;4986550;28;20747;-73
2023/12/28 03:44:26;;;;;;;9.67;4.87;;;;;;;5.41;100.00;100534.44;4985927;28;20304;-73
2023/12/28 03:46:53;;;;;;;9.07;4.93;;;;;;;5.37;100.00;100525.53;4984568;28;20211;-73
2023/12/28 03:49:20;;;;;;;8.63;5.50;;;;;;;5.56;100.00;100534.97;4987082;28;20883;-73
2023/12/28 03:51:49;;;;;;;8.80;5.37;;;;;;;5.52;100.00;100528.72;4986628;28;20658;-73
2023/12/28 03:54:17;;;;;;;8.77;5.03;;;;;;;5.56;100.00;100535.84;4985102;28;20627;-73
2023/12/28 03:56:44;;;;;;;10.63;5.20;;;;;;;5.64;100.00;100546.66;4976080;28;20200;-73
2023/12/28 03:59:10;;;;;;;7.53;4.43;;;;;;;5.71;100.00;100555.66;4986713;28;20250;-73
2023/12/28 04:01:37;;;;;;;9.20;4.77;;;;;;;5.78;100.00;100547.16;4985771;28;20279;-74
2023/12/28 04:04:04;;;;;;;8.77;4.73;;;;;;;5.82;100.00;100552.56;4987300;28;20196;-73
2023/12/28 04:06:30;;;;;;;8.40;4.30;;;;;;;5.92;100.00;100536.28;4984884;28;20644;-73
2023/12/28 04:08:57;;;;;;;6.83;4.33;;;;;;;6.05;100.00;100544.63;4985883;28;20227;-73
2023/12/28 04:11:23;;;;;;;6.77;4.57;;;;;;;6.07;100.00;100525.41;4984462;28;20202;-74
2023/12/28 04:13:50;;;;;;;6.90;4.20;;;;;;;6.15;100.00;100544.97;4986149;28;20204;-73
2023/12/28 04:16:16;;;;;;;6.50;3.80;;;;;;;6.14;100.00;100548.44;4985256;28;20200;-73
2023/12/28 04:18:43;;;;;;;7.87;4.23;;;;;;;6.15;100.00;100555.47;4987920;28;20916;-73
2023/12/28 04:21:13;;;;;;;8.70;4.13;;;;;;;6.18;100.00;100562.59;4985819;28;20307;-73
2023/12/28 04:23:41;;;;;;;5.83;3.70;;;;;;;6.17;100.00;100538.03;4985374;28;20309;-73
2023/12/28 04:26:07;;;;;;;6.33;4.37;;;;;;;6.22;100.00;100541.69;4985111;28;20769;-73
2023/12/28 04:28:37;;;;;;;7.60;4.37;;;;;;;6.21;100.00;100515.34;4983903;28;20217;-73
2023/12/28 04:31:05;;;;;;;5.63;3.70;;;;;;;6.25;100.00;100528.66;4983010;28;20194;-74
2023/12/28 04:33:32;;;;;;;8.37;4.13;;;;;;;6.31;100.00;100530.56;4984887;28;20193;-73
2023/12/28 04:36:05;;;;;;;6.43;4.00;;;;;;;6.37;100.00;100543.03;4988343;28;20201;-74
2023/12/28 04:38:32;;;;;;;7.97;3.80;;;;;;;6.47;100.00;100538.13;4988259;28;20228;-73
2023/12/28 04:40:59;;;;;;;7.70;3.80;;;;;;;6.48;100.00;100532.03;4986976;28;20289;-73
2023/12/28 04:43:26;;;;;;;8.77;3.67;;;;;;;6.65;100.00;100539.56;4988192;28;20216;-73
2023/12/28 04:45:52;;;;;;;5.07;3.50;;;;;;;6.66;100.00;100536.97;4988592;28;20196;-73
2023/12/28 04:48:20;;;;;;;6.03;3.73;;;;;;;6.83;100.00;100554.19;4990251;28;20308;-73
2023/12/28 04:50:48;;;;;;;7.87;3.37;;;;;;;6.96;100.00;100554.56;4991364;28;20192;-74
2023/12/28 04:53:15;;;;;;;6.50;3.20;;;;;;;7.01;100.00;100552.97;4988545;28;20223;-73
2023/12/28 04:55:41;;;;;;;5.00;3.60;;;;;;;7.08;100.00;100557.56;4984312;28;20194;-73
2023/12/28 04:58:08;;;;;;;5.37;3.17;;;;;;;7.11;100.00;100565.53;4987086;28;20698;-73
2023/12/28 05:00:34;;;;;;;4.30;3.20;;;;;;;7.19;100.00;100571.94;4990593;28;20200;-73
2023/12/28 05:03:01;;;;;;;4.97;3.13;;;;;;;7.29;100.00;100570.50;4991399;28;20218;-73
2023/12/28 05:05:27;;;;;;;4.90;3.47;;;;;;;7.34;100.00;100571.50;4987488;28;20804;-73
2023/12/28 05:07:54;;;;;;;6.10;3.50;;;;;;;7.31;100.00;100580.22;4988718;28;20228;-74
2023/12/28 05:10:21;;;;;;;7.67;3.63;;;;;;;7.39;100.00;100588.34;5010914;28;20667;-74
2023/12/28 05:12:47;;;;;;;7.50;4.03;;;;;;;7.38;100.00;100574.28;4986907;28;20490;-73
2023/12/28 05:15:13;;;;;;;5.40;3.37;;;;;;;7.37;100.00;100585.66;4984550;28;20208;-74
2023/12/28 05:17:41;;;;;;;6.93;3.40;;;;;;;7.40;100.00;100583.13;4986537;28;20216;-74
2023/12/28 05:20:08;;;;;;;6.53;3.70;;;;;;;7.41;100.00;100573.47;4988159;28;20193;-73
2023/12/28 05:22:34;;;;;;;6.47;3.40;;;;;;;7.41;100.00;100570.84;4990306;28;20221;-73
2023/12/28 05:25:00;;;;;;;7.77;3.70;;;;;;;7.38;100.00;100568.13;4989774;28;20207;-73
2023/12/28 05:27:27;;;;;;;9.07;3.63;;;;;;;7.37;100.00;100569.84;4989991;28;20256;-73
2023/12/28 05:29:53;;;;;;;7.77;3.43;;;;;;;7.36;100.00;100572.44;4985949;28;20198;-73
2023/12/28 05:32:20;;;;;;;5.93;3.73;;;;;;;7.34;100.00;100571.50;4987792;28;20190;-74
2023/12/28 05:34:47;;;;;;;7.57;3.90;;;;;;;7.30;100.00;100565.25;4986071;28;20212;-74
2023/12/28 05:37:13;;;;;;;6.00;3.43;;;;;;;7.21;100.00;100575.53;4990762;28;20204;-74
2023/12/28 05:39:40;;;;;;;5.70;3.60;;;;;;;7.18;100.00;100565.78;4990670;28;20205;-73
2023/12/28 05:42:06;;;;;;;6.50;3.57;;;;;;;7.16;100.00;100564.84;4989688;28;20307;-74
2023/12/28 05:44:33;;;;;;;6.13;3.53;;;;;;;7.04;100.00;100576.75;4988836;28;20636;-73
2023/12/28 05:47:01;;;;;;;6.00;3.43;;;;;;;6.96;100.00;100568.63;4990793;28;20200;-73
2023/12/28 05:49:28;;;;;;;4.80;3.53;;;;;;;6.99;100.00;100570.44;4986493;28;20620;-74
2023/12/28 05:51:55;;;;;;;7.43;3.47;;;;;;;6.97;100.00;100566.88;4986742;28;20225;-73
2023/12/28 05:54:21;;;;;;;8.67;3.40;;;;;;;6.98;100.00;100582.72;4987441;28;20717;-74
2023/12/28 05:56:48;;;;;;;6.43;3.40;;;;;;;6.98;100.00;100592.38;4989412;28;20200;-73
2023/12/28 05:59:14;;;;;;;5.50;3.53;;;;;;;6.99;100.00;100584.50;4987673;28;20224;-73
2023/12/28 06:01:44;;;;;;;8.37;4.07;;;;;;;6.94;100.00;100586.09;4989957;28;20731;-73
2023/12/28 06:04:11;;;;;;;7.53;4.00;;;;;;;6.89;100.00;100585.97;4989122;28;20227;-74
2023/12/28 06:06:37;;;;;;;6.50;4.20;;;;;;;6.91;100.00;100584.28;4987689;28;20255;-74
2023/12/28 06:09:04;;;;;;;6.63;3.63;;;;;;;6.81;100.00;100581.31;5002414;22;20228;-71
2023/12/28 06:11:30;;;;;;;9.03;3.73;;;;;;;6.81;100.00;100574.31;4985037;28;20201;-72
2023/12/28 06:13:57;;;;;;;8.10;4.30;;;;;;;6.73;100.00;100570.53;4981662;28;20283;-72
2023/12/28 06:16:25;;;;;;;6.77;4.33;;;;;;;6.73;100.00;100567.00;4981282;28;20205;-71
2023/12/28 06:18:52;;;;;;;8.20;4.07;;;;;;;6.77;100.00;100574.13;4988888;28;20237;-71
2023/12/28 06:21:18;;;;;;;7.30;4.27;;;;;;;6.73;100.00;100569.63;4993212;28;20259;-71
2023/12/28 06:23:45;;;;;;;6.13;3.77;;;;;;;6.71;100.00;100581.84;5000685;28;20217;-73
2023/12/28 06:26:11;;;;;;;9.47;4.03;;;;;;;6.62;100.00;100573.66;4990088;28;20212;-71
2023/12/28 06:28:38;;;;;;;6.67;3.40;;;;;;;6.59;100.00;100575.34;5006580;28;20731;-71
2023/12/28 06:31:04;;;;;;;6.20;3.27;;;;;;;6.52;100.00;100575.13;4986521;28;20431;-71
2023/12/28 06:33:31;;;;;;;5.87;3.53;;;;;;;6.53;100.00;100574.28;4992403;28;20205;-71
2023/12/28 06:35:58;;;;;;;5.03;3.07;;;;;;;6.60;100.00;100571.00;4991974;28;20207;-69
2023/12/28 06:38:25;;;;;;;5.90;3.20;;;;;;;6.55;100.00;100572.59;4993654;28;20317;-70
2023/12/28 06:40:51;;;;;;;5.70;3.37;;;;;;;6.65;100.00;100577.28;4988675;28;20236;-70
2023/12/28 06:43:18;;;;;;;4.93;3.27;;;;;;;6.72;100.00;100570.47;4990568;28;20253;-69
2023/12/28 06:45:44;;;;;;;4.37;2.80;;;;;;;6.65;100.00;100576.41;4982145;28;20296;-69
2023/12/28 06:48:11;;;;;;;5.67;3.47;;;;;;;6.57;100.00;100569.16;4995872;28;20647;-71
2023/12/28 06:50:37;;;;;;;5.03;3.10;;;;;;;6.53;100.00;100569.00;4994659;28;20303;-71
2023/12/28 06:53:04;;;;;;;5.90;2.87;;;;;;;6.51;100.00;100570.69;4996847;28;20247;-69
2023/12/28 06:55:30;;;;;;;5.77;2.63;;;;;;;6.57;100.00;100578.78;4989352;28;20232;-69
2023/12/28 06:57:57;;;;;;;6.23;2.53;;;;;;;6.51;100.00;100570.69;4989206;28;20217;-69
2023/12/28 07:00:24;;;;;;;4.30;2.70;;;;;;;6.50;100.00;100585.59;4979312;28;20263;-70
2023/12/28 07:02:50;;;;;;;4.40;2.80;;;;;;;6.50;100.00;100585.59;4995838;28;21041;-69
2023/12/28 07:05:17;;;;;;;6.57;3.00;;;;;;;6.54;100.00;100597.09;4983636;28;20290;-69
2023/12/28 07:07:43;;;;;;;3.40;2.30;;;;;;;6.44;100.00;100593.28;4988292;28;20297;-68
2023/12/28 07:10:10;;;;;;;4.07;2.70;;;;;;;6.42;100.00;100594.09;4982083;28;20291;-71
2023/12/28 07:12:36;;;;;;;3.80;2.50;;;;;;;6.25;100.00;100589.13;4988897;28;20215;-70
2023/12/28 07:15:03;;;;;;;4.40;2.80;;;;;;;6.18;100.00;100592.41;5006890;28;20697;-69
2023/12/28 07:17:29;;;;;;;3.97;2.77;;;;;;;6.15;100.00;100597.56;4994622;28;20201;-69
2023/12/28 07:19:56;;;;;;;3.37;2.60;;;;;;;6.05;100.00;100602.44;4988374;28;20736;-70
2023/12/28 07:22:23;;;;;;;4.70;2.97;;;;;;;5.97;100.00;100602.16;4988169;28;20236;-72
2023/12/28 07:24:49;;;;;;;4.63;3.03;;;;;;;5.87;100.00;100608.78;4995748;28;20294;-70
2023/12/28 07:27:16;;;;;;;4.43;2.60;;;;;;;5.80;100.00;100614.69;4992953;28;20232;-69
2023/12/28 07:29:42;;;;;;;6.13;3.20;;;;;;;5.76;100.00;100620.66;4993217;28;20224;-69
2023/12/28 07:32:09;;;;;;;5.33;2.93;;;;;;;5.69;100.00;100623.03;4990348;28;20235;-70
2023/12/28 07:34:36;;;;;;;5.60;3.03;;;;;;;5.68;100.00;100629.13;4986678;28;20204;-69
2023/12/28 07:37:03;;;;;;;5.77;3.20;;;;;;;5.64;100.00;100626.38;4988768;28;20255;-73
2023/12/28 07:39:29;;;;;;;6.93;3.10;;;;;;;5.70;100.00;100616.94;4989046;28;20256;-70
2023/12/28 07:41:56;;;;;;;4.90;3.20;;;;;;;5.73;100.00;100620.56;4987858;28;20271;-69
2023/12/28 07:44:22;;;;;;;5.27;3.40;;;;;;;5.75;100.00;100629.38;4991334;28;20217;-70
2023/12/28 07:46:49;;;;;;;4.77;3.20;;;;;;;5.82;100.00;100628.75;4978786;28;20300;-72
2023/12/28 07:49:15;;;;;;;5.93;3.30;;;;;;;5.88;100.00;100630.72;4986431;28;20256;-70
2023/12/28 07:51:42;;;;;;;5.57;3.23;;;;;;;5.84;100.00;100640.22;5001030;28;20207;-70
2023/12/28 07:54:09;;;;;;;6.70;3.40;;;;;;;5.83;100.00;100633.19;4996643;28;20208;-71
2023/12/28 07:56:35;;;;;;;7.23;3.50;;;;;;;5.86;100.00;100624.50;5019148;28;20208;-70
2023/12/28 07:59:03;;;;;;;5.70;3.37;;;;;;;5.86;100.00;100630.66;4996183;28;20323;-70
2023/12/28 08:01:29;;;;;;;5.87;3.10;;;;;;;5.82;100.00;100626.13;5001967;28;20211;-69
2023/12/28 08:03:56;;;;;;;8.57;3.63;;;;;;;5.86;100.00;100637.66;5007689;28;20707;-70
2023/12/28 08:06:23;;;;;;;4.83;3.10;;;;;;;5.93;100.00;100631.81;5011926;28;20240;-72
2023/12/28 08:08:49;;;;;;;4.90;3.40;;;;;;;5.93;100.00;100629.19;5000946;28;20252;-72
2023/12/28 08:11:15;;;;;;;6.53;3.70;;;;;;;5.97;100.00;100623.19;4998587;28;20204;-71
2023/12/28 08:13:42;;;;;;;5.30;3.63;;;;;;;5.98;100.00;100631.13;4995359;28;20295;-70
2023/12/28 08:16:08;;;;;;;6.67;3.23;;;;;;;6.15;100.00;100636.09;4993051;28;20639;-71
2023/12/28 08:18:35;;;;;;;6.63;3.57;;;;;;;6.18;100.00;100633.56;4992662;28;20250;-71
2023/12/28 08:21:04;;;;;;;7.17;4.53;;;;;;;5.95;100.00;100604.72;4992557;28;20274;-71
2023/12/28 08:23:30;;;;;;;7.17;4.70;;;;;;;6.18;100.00;100633.56;4992842;28;20603;-72
2023/12/28 08:25:56;;;;;;;8.13;5.13;;;;;;;6.10;100.00;100629.78;4992896;28;20208;-71
2023/12/28 08:28:23;;;;;;;10.37;6.73;;;;;;;6.20;100.00;100637.16;4997669;28;20216;-71
2023/12/28 08:30:49;;;;;;;7.97;4.50;;;;;;;6.16;100.00;100624.75;4993724;28;20204;-71
2023/12/28 08:33:16;;;;;;;6.67;4.03;;;;;;;6.08;100.00;100629.75;4994050;28;20290;-71
2023/12/28 08:35:43;;;;;;;6.67;3.73;;;;;;;6.03;100.00;100622.53;4993042;28;20284;-71
2023/12/28 08:38:09;;;;;;;5.83;3.37;;;;;;;6.05;100.00;100621.75;4999106;28;20376;-71
2023/12/28 08:40:36;;;;;;;6.90;3.27;;;;;;;6.11;100.00;100621.06;4989448;28;20207;-70
2023/12/28 08:43:02;;;;;;;4.77;3.30;;;;;;;6.15;100.00;100607.19;4994558;28;20213;-70
2023/12/28 08:45:29;;;;;;;7.13;4.27;;;;;;;6.34;100.00;100624.47;4992572;28;20653;-68
2023/12/28 08:47:55;;;;;;;8.70;5.23;;;;;;;6.48;100.00;100628.47;4992253;28;20220;-69
2023/12/28 08:50:22;;;;;;;8.90;4.43;;;;;;;6.54;100.00;100631.31;4979836;28;20580;-69
2023/12/28 08:52:49;;;;;;;6.20;4.33;;;;;;;6.66;100.00;100629.06;4994203;28;20284;-69
2023/12/28 08:55:15;;;;;;;7.13;4.20;;;;;;;6.70;100.00;100632.69;4988626;28;20208;-70
2023/12/28 08:57:41;;;;;;;6.83;4.33;;;;;;;6.76;100.00;100635.53;4982990;28;20670;-70
2023/12/28 09:00:10;;;;;;;6.70;3.90;;;;;;;6.80;100.00;100627.78;4990400;28;20290;-70
2023/12/28 09:02:37;;;;;;;7.07;4.00;;;;;;;6.89;100.00;100622.81;4989529;28;20295;-69
2023/12/28 09:05:04;;;;;;;6.50;3.60;;;;;;;6.91;100.00;100636.03;4990192;28;20220;-70
2023/12/28 09:07:30;;;;;;;5.37;3.67;;;;;;;7.09;100.00;100641.88;4997458;28;20212;-71
2023/12/28 09:09:57;;;;;;;5.83;4.07;;;;;;;7.12;100.00;100638.44;4995986;28;20208;-71
2023/12/28 09:12:23;;;;;;;6.50;3.83;;;;;;;7.12;100.00;100636.69;4991304;28;20208;-71
2023/12/28 09:14:52;;;;;;;7.50;4.30;;;;;;;7.20;100.00;100635.22;4989529;28;20197;-70
2023/12/28 09:17:22;;;;;;;7.93;4.07;;;;;;;7.14;100.00;100644.66;4995382;28;20214;-71
2023/12/28 09:19:48;;;;;;;8.17;3.90;;;;;;;7.12;100.00;100649.88;5008861;28;20224;-71
2023/12/28 09:22:15;;;;;;;6.07;3.87;;;;;;;7.10;100.00;100642.75;5002160;28;20208;-70
2023/12/28 09:24:41;;;;;;;5.60;3.50;;;;;;;7.09;100.00;100646.25;5005181;28;20220;-70
2023/12/28 09:27:08;;;;;;;5.23;3.40;;;;;;;7.10;100.00;100645.41;4998446;28;20204;-70
2023/12/28 09:29:35;;;;;;;5.13;3.40;;;;;;;7.02;100.00;100641.63;5001082;28;20739;-71
2023/12/28 09:32:01;;;;;;;5.83;3.60;;;;;;;7.11;100.00;100658.63;4968312;28;20200;-69
2023/12/28 09:34:28;;;;;;;6.63;3.77;;;;;;;7.11;100.00;100655.97;5004603;28;20267;-69
2023/12/28 09:36:54;;;;;;;5.00;3.50;;;;;;;7.12;100.00;100655.13;4997271;28;20198;-69
2023/12/28 09:39:21;;;;;;;5.17;3.60;;;;;;;7.15;100.00;100656.97;4993337;28;20222;-70
2023/12/28 09:41:53;;;;;;;5.73;3.70;;;;;;;7.13;100.00;100663.94;5008048;28;20220;-69
2023/12/28 09:44:20;;;;;;;7.20;3.63;;;;;;;7.12;100.00;100657.75;5005976;28;20304;-70
2023/12/28 09:46:46;;;;;;;10.03;4.10;;;;;;;7.22;100.00;100659.88;5027738;28;20218;-73
2023/12/28 09:49:13;;;;;;;5.20;3.40;;;;;;;7.26;100.00;100674.03;5008380;28;20237;-72
2023/12/28 09:51:40;;;;;;;6.67;4.13;;;;;;;7.21;100.00;100680.88;4997831;28;20197;-70
2023/12/28 09:54:06;;;;;;;5.73;3.57;;;;;;;7.21;100.00;100668.63;5025730;28;20248;-68
2023/12/28 09:56:33;;;;;;;6.97;3.50;;;;;;;7.33;100.00;100654.03;5018251;28;20248;-71
2023/12/28 09:59:02;;;;;;;7.07;3.60;;;;;;;7.41;100.00;100640.22;4998938;28;20219;-71
2023/12/28 10:01:28;;;;;;;7.70;3.60;;;;;;;7.58;100.00;100653.88;4995757;28;20213;-72
2023/12/28 10:03:55;;;;;;;9.47;3.60;;;;;;;7.64;100.00;100661.13;4994203;28;20227;-71
2023/12/28 10:06:21;;;;;;;5.67;3.50;;;;;;;7.71;100.00;100663.06;5018892;28;20204;-73
2023/12/28 10:08:49;;;;;;;6.43;3.50;;;;;;;7.80;100.00;100660.69;4997961;28;20314;-71
2023/12/28 10:11:16;;;;;;;9.10;3.20;;;;;;;7.94;100.00;100655.81;4997434;28;20764;-69
2023/12/28 10:13:43;;;;;;;9.87;3.37;;;;;;;8.09;100.00;100649.22;5000824;28;20225;-71
2023/12/28 10:16:11;;;;;;;4.33;2.83;;;;;;;8.28;100.00;100650.59;5001934;28;20196;-69
2023/12/28 10:18:42;;;;;;;5.17;2.93;;;;;;;8.32;100.00;100649.84;5001731;28;20301;-71
2023/12/28 10:21:09;;;;;;;4.70;2.70;;;;;;;8.31;100.00;100642.78;5002691;28;20270;-69
2023/12/28 10:23:36;;;;;;;5.90;2.57;;;;;;;8.48;100.00;100646.81;5010385;28;20768;-72
2023/12/28 10:26:04;;;;;;;4.83;2.73;;;;;;;8.73;100.00;100644.75;5008077;28;20198;-72
2023/12/28 10:28:33;;;;;;;4.23;2.60;;;;;;;8.96;100.00;100637.41;5007464;28;20639;-72
2023/12/28 10:30:59;;;;;;;4.03;2.50;;;;;;;9.08;100.00;100633.28;5007187;28;20200;-72
2023/12/28 10:33:26;;;;;;;4.03;2.43;;;;;;;9.29;100.00;100634.66;5006149;28;20202;-72
2023/12/28 10:35:59;;;;;;;4.97;2.57;;;;;;;9.42;100.00;100624.38;4997438;28;20735;-71
2023/12/28 10:38:34;;;;;;;8.93;2.50;;;;;;;9.60;100.00;100615.03;4997386;28;20289;-72
2023/12/28 10:41:00;;;;;;;5.87;2.30;;;;;;;9.65;100.00;100622.25;5007407;28;20203;-71
2023/12/28 10:43:28;;;;;;;2.90;2.20;;;;;;;9.76;100.00;100627.75;4999039;28;20309;-72
2023/12/28 10:45:56;;;;;;;4.97;2.17;;;;;;;9.85;100.00;100624.38;5003226;28;20200;-71
2023/12/28 10:48:33;;;;;;;5.90;2.60;;;;;;;9.93;100.00;100628.97;5004073;28;20230;-72
2023/12/28 10:51:03;;;;;;;2.73;2.03;;;;;;;10.01;100.00;100624.72;4995881;28;20232;-72
2023/12/28 10:53:48;;;;;;;3.93;2.13;;;;;;;10.12;100.00;100617.00;4997680;28;20197;-72
2023/12/28 10:56:24;;;;;;;2.90;2.00;;;;;;;10.11;100.00;100623.16;5002445;28;20200;-71
2023/12/28 10:59:22;;;;;;;6.47;2.20;;;;;;;10.21;100.00;100622.47;5003966;28;20579;-72
2023/12/28 11:01:51;;;;;;;4.97;2.37;;;;;;;10.32;100.00;100620.03;5004814;28;20299;-71
2023/12/28 11:04:44;;;;;;;3.10;2.00;;;;;;;10.31;100.00;100624.44;5002378;28;20224;-72
2023/12/28 11:07:13;;;;;;;4.33;2.03;;;;;;;10.39;100.00;100623.66;4986711;28;20208;-72
2023/12/28 11:09:42;;;;;;;2.90;2.00;;;;;;;10.39;100.00;100621.00;4999644;28;20324;-72
2023/12/28 11:12:10;;;;;;;3.53;2.00;;;;;;;10.40;100.00;100612.22;4989817;28;20201;-72
2023/12/28 11:14:40;;;;;;;3.10;2.00;;;;;;;10.53;100.00;100615.13;4987301;28;20233;-73
2023/12/28 11:17:08;;;;;;;3.80;1.63;;;;;;;10.61;100.00;100609.94;4996891;28;20200;-72
2023/12/28 11:19:36;;;;;;;2.80;1.53;;;;;;;10.59;100.00;100607.28;4990032;28;20243;-72
2023/12/28 11:22:03;;;;;;;5.70;1.50;;;;;;;10.64;100.00;100602.03;4992014;28;20194;-72